Time,TemperatureF,DewpointF,PressureIn,WindDirection,WindDirectionDegrees,WindSpeedMPH,WindSpeedGustMPH,Humidity,HourlyPrecipIn,Conditions,Clouds,dailyrainin,SoftwareType,DateUTC
2013-10-29 00:00:00,47.7,45.5,30.30,SSW,209,0.0,0.0,92,0.00,,,0.00,VWS V14.01,2013-10-29 04:00:00,
2013-10-29 00:02:00,47.6,45.4,30.30,SSW,209,0.0,0.0,92,0.00,,,0.00,VWS V14.01,2013-10-29 04:02:00,
2013-10-29 00:07:00,47.3,45.1,30.30,SSW,209,0.0,0.0,92,0.00,,,0.00,VWS V14.01,2013-10-29 04:07:00,
2013-10-29 00:10:00,47.1,44.9,30.30,SSW,209,0.0,0.0,92,0.00,,,0.00,VWS V14.01,2013-10-29 04:10:00,
2013-10-29 00:12:00,47.1,44.9,30.30,SSW,209,0.0,0.0,92,0.00,,,0.00,VWS V14.01,2013-10-29 04:12:00,
2013-10-29 00:17:00,47.3,45.4,30.30,SSW,209,0.0,0.0,93,0.00,,,0.00,VWS V14.01,2013-10-29 04:17:00,
2013-10-29 00:20:00,47.4,45.5,30.30,SSW,209,0.0,0.0,93,0.00,,,0.00,VWS V14.01,2013-10-29 04:20:00,
2013-10-29 00:22:00,47.4,45.5,30.30,SSW,209,0.0,0.0,93,0.00,,,0.00,VWS V14.01,2013-10-29 04:22:00,
2013-10-29 00:27:00,47.4,45.5,30.30,SSW,209,0.0,0.0,93,0.00,,,0.00,VWS V14.01,2013-10-29 04:27:00,
2013-10-29 00:30:00,47.4,45.5,30.30,SSW,209,0.0,0.0,93,0.00,,,0.00,VWS V14.01,2013-10-29 04:30:00,
2013-10-29 00:32:00,47.6,46.0,30.30,SSW,209,0.0,0.0,94,0.00,,,0.00,VWS V14.01,2013-10-29 04:32:00,
2013-10-29 00:37:00,47.3,45.4,30.30,SSW,209,0.0,0.0,93,0.00,,,0.00,VWS V14.01,2013-10-29 04:37:00,
2013-10-29 00:40:00,47.3,45.4,30.30,SSW,209,0.0,0.0,93,0.00,,,0.00,VWS V14.01,2013-10-29 04:40:00,
2013-10-29 00:42:00,47.1,45.2,30.30,SSW,209,0.0,0.0,93,0.00,,,0.00,VWS V14.01,2013-10-29 04:42:00,
2013-10-29 00:47:00,47.1,45.5,30.29,SSW,209,0.0,0.0,94,0.00,,,0.00,VWS V14.01,2013-10-29 04:47:00,
2013-10-29 00:50:00,47.3,45.7,30.29,SSW,209,0.0,0.0,94,0.00,,,0.00,VWS V14.01,2013-10-29 04:50:00,
2013-10-29 00:52:00,47.6,46.0,30.29,SSW,209,0.0,0.0,94,0.00,,,0.00,VWS V14.01,2013-10-29 04:52:00,
2013-10-29 00:57:00,48.3,46.9,30.29,SSW,209,0.0,0.0,95,0.00,,,0.00,VWS V14.01,2013-10-29 04:57:00,
2013-10-29 01:00:00,48.3,46.9,30.30,SSW,209,0.0,0.0,95,0.00,,,0.00,VWS V14.01,2013-10-29 05:00:00,
2013-10-29 01:02:00,48.3,46.9,30.30,SSW,209,0.0,0.0,95,0.00,,,0.00,VWS V14.01,2013-10-29 05:02:00,
2013-10-29 01:07:00,48.0,46.6,30.30,SSW,209,0.0,0.0,95,0.00,,,0.00,VWS V14.01,2013-10-29 05:07:00,
2013-10-29 01:10:00,47.9,46.5,30.30,SSW,209,0.0,0.0,95,0.00,,,0.00,VWS V14.01,2013-10-29 05:10:00,
2013-10-29 01:12:00,47.6,46.2,30.30,SSW,209,0.0,0.0,95,0.00,,,0.00,VWS V14.01,2013-10-29 05:12:00,
2013-10-29 01:17:00,47.6,46.2,30.30,SSW,209,0.0,0.0,95,0.00,,,0.00,VWS V14.01,2013-10-29 05:17:00,
2013-10-29 01:20:00,47.9,46.5,30.30,SSW,209,0.0,0.0,95,0.00,,,0.00,VWS V14.01,2013-10-29 05:20:00,
2013-10-29 01:22:00,48.0,46.6,30.30,SSW,209,0.0,0.0,95,0.00,,,0.00,VWS V14.01,2013-10-29 05:22:00,
2013-10-29 01:27:00,47.6,46.2,30.30,SSW,209,0.0,0.0,95,0.00,,,0.00,VWS V14.01,2013-10-29 05:27:00,
2013-10-29 01:30:00,46.8,45.2,30.30,SSW,209,0.0,0.0,94,0.00,,,0.00,VWS V14.01,2013-10-29 05:30:00,
2013-10-29 01:32:00,46.2,44.3,30.30,SSW,209,0.0,0.0,93,0.00,,,0.00,VWS V14.01,2013-10-29 05:32:00,
2013-10-29 01:37:00,45.4,43.5,30.30,SSW,209,0.0,0.0,93,0.00,,,0.00,VWS V14.01,2013-10-29 05:37:00,
2013-10-29 01:40:00,45.2,43.3,30.30,SSW,209,0.0,0.0,93,0.00,,,0.00,VWS V14.01,2013-10-29 05:40:00,
2013-10-29 01:42:00,45.5,43.9,30.30,SSW,209,0.0,0.0,94,0.00,,,0.00,VWS V14.01,2013-10-29 05:42:00,
2013-10-29 01:47:00,46.7,45.6,30.30,SSW,209,0.0,0.0,96,0.00,,,0.00,VWS V14.01,2013-10-29 05:47:00,
2013-10-29 01:50:00,46.7,45.3,30.30,SSW,209,0.0,0.0,95,0.00,,,0.00,VWS V14.01,2013-10-29 05:50:00,
2013-10-29 01:52:00,46.7,45.3,30.30,SSW,209,0.0,0.0,95,0.00,,,0.00,VWS V14.01,2013-10-29 05:52:00,
2013-10-29 01:57:00,46.7,45.3,30.30,SSW,209,0.0,0.0,95,0.00,,,0.00,VWS V14.01,2013-10-29 05:57:00,
2013-10-29 02:00:00,46.8,45.5,30.30,SSW,209,0.0,0.0,95,0.00,,,0.00,VWS V14.01,2013-10-29 06:00:00,
2013-10-29 02:02:00,46.7,45.3,30.30,SSW,209,0.0,0.0,95,0.00,,,0.00,VWS V14.01,2013-10-29 06:02:00,
2013-10-29 02:07:00,46.7,45.3,30.30,SSW,209,0.0,0.0,95,0.00,,,0.00,VWS V14.01,2013-10-29 06:07:00,
2013-10-29 02:10:00,46.5,45.2,30.30,SSW,209,0.0,0.0,95,0.00,,,0.00,VWS V14.01,2013-10-29 06:10:00,
2013-10-29 02:12:00,46.4,45.0,30.30,SSW,209,0.0,0.0,95,0.00,,,0.00,VWS V14.01,2013-10-29 06:12:00,
2013-10-29 02:17:00,45.7,44.1,30.31,SSW,209,0.0,0.0,94,0.00,,,0.00,VWS V14.01,2013-10-29 06:17:00,
2013-10-29 02:20:00,45.4,43.8,30.31,SSW,209,0.0,0.0,94,0.00,,,0.00,VWS V14.01,2013-10-29 06:20:00,
2013-10-29 02:22:00,45.1,43.5,30.31,SSW,209,0.0,0.0,94,0.00,,,0.00,VWS V14.01,2013-10-29 06:22:00,
2013-10-29 02:27:00,44.8,43.2,30.31,SSW,209,0.0,0.0,94,0.00,,,0.00,VWS V14.01,2013-10-29 06:27:00,
2013-10-29 02:30:00,44.6,43.0,30.31,SSW,209,0.0,0.0,94,0.00,,,0.00,VWS V14.01,2013-10-29 06:30:00,
2013-10-29 02:32:00,44.5,42.9,30.31,SSW,209,0.0,0.0,94,0.00,,,0.00,VWS V14.01,2013-10-29 06:32:00,
2013-10-29 02:37:00,44.3,42.7,30.31,SSW,209,0.0,0.0,94,0.00,,,0.00,VWS V14.01,2013-10-29 06:37:00,
2013-10-29 02:40:00,44.3,42.7,30.31,SSW,209,0.0,0.0,94,0.00,,,0.00,VWS V14.01,2013-10-29 06:40:00,
2013-10-29 02:42:00,44.3,42.7,30.31,SSW,209,0.0,0.0,94,0.00,,,0.00,VWS V14.01,2013-10-29 06:42:00,
2013-10-29 02:47:00,44.1,42.5,30.31,SSW,209,0.0,0.0,94,0.00,,,0.00,VWS V14.01,2013-10-29 06:47:00,
2013-10-29 02:50:00,43.9,42.3,30.31,SSW,209,0.0,0.0,94,0.00,,,0.00,VWS V14.01,2013-10-29 06:50:00,
2013-10-29 02:52:00,43.8,42.2,30.31,SSW,209,0.0,0.0,94,0.00,,,0.00,VWS V14.01,2013-10-29 06:52:00,
2013-10-29 02:57:00,43.5,41.9,30.31,SSW,209,0.0,0.0,94,0.00,,,0.00,VWS V14.01,2013-10-29 06:57:00,
2013-10-29 03:00:00,43.5,41.9,30.30,SSW,209,0.0,0.0,94,0.00,,,0.00,VWS V14.01,2013-10-29 07:00:00,
2013-10-29 03:02:00,43.5,41.9,30.30,SSW,209,0.0,0.0,94,0.00,,,0.00,VWS V14.01,2013-10-29 07:02:00,
2013-10-29 03:07:00,43.6,42.0,30.30,SSW,209,0.0,0.0,94,0.00,,,0.00,VWS V14.01,2013-10-29 07:07:00,
2013-10-29 03:10:00,43.6,42.0,30.30,SSW,209,0.0,0.0,94,0.00,,,0.00,VWS V14.01,2013-10-29 07:10:00,
2013-10-29 03:12:00,43.5,41.9,30.30,SSW,209,0.0,0.0,94,0.00,,,0.00,VWS V14.01,2013-10-29 07:12:00,
2013-10-29 03:17:00,43.3,41.7,30.30,SSW,209,0.0,0.0,94,0.00,,,0.00,VWS V14.01,2013-10-29 07:17:00,
2013-10-29 03:20:00,43.3,41.7,30.30,SSW,209,0.0,0.0,94,0.00,,,0.00,VWS V14.01,2013-10-29 07:20:00,
2013-10-29 03:22:00,43.3,41.7,30.30,SSW,209,0.0,0.0,94,0.00,,,0.00,VWS V14.01,2013-10-29 07:22:00,
2013-10-29 03:27:00,43.3,41.7,30.30,SSW,209,0.0,0.0,94,0.00,,,0.00,VWS V14.01,2013-10-29 07:27:00,
2013-10-29 03:30:00,43.3,41.7,30.31,SSW,209,0.0,0.0,94,0.00,,,0.00,VWS V14.01,2013-10-29 07:30:00,
2013-10-29 03:32:00,43.3,41.7,30.31,SSW,209,0.0,0.0,94,0.00,,,0.00,VWS V14.01,2013-10-29 07:32:00,
2013-10-29 03:37:00,43.3,41.7,30.31,SSW,209,0.0,0.0,94,0.00,,,0.00,VWS V14.01,2013-10-29 07:37:00,
2013-10-29 03:40:00,43.3,41.7,30.31,SSW,209,0.0,0.0,94,0.00,,,0.00,VWS V14.01,2013-10-29 07:40:00,
2013-10-29 03:42:00,43.3,41.7,30.31,SSW,209,0.0,0.0,94,0.00,,,0.00,VWS V14.01,2013-10-29 07:42:00,
2013-10-29 03:47:00,43.3,41.7,30.32,SSW,209,0.0,0.0,94,0.00,,,0.00,VWS V14.01,2013-10-29 07:47:00,
2013-10-29 03:50:00,43.3,41.7,30.32,SSW,209,0.0,0.0,94,0.00,,,0.00,VWS V14.01,2013-10-29 07:50:00,
2013-10-29 03:53:00,43.2,41.6,30.32,SSW,209,0.0,0.0,94,0.00,,,0.00,VWS V14.01,2013-10-29 07:53:00,
2013-10-29 03:58:00,42.9,41.3,30.32,SSW,209,0.0,0.0,94,0.00,,,0.00,VWS V14.01,2013-10-29 07:58:00,
2013-10-29 04:00:00,42.9,41.3,30.31,SSW,209,0.0,0.0,94,0.00,,,0.00,VWS V14.01,2013-10-29 08:00:00,
2013-10-29 04:03:00,42.8,41.2,30.31,SSW,209,0.0,0.0,94,0.00,,,0.00,VWS V14.01,2013-10-29 08:03:00,
2013-10-29 04:08:00,42.9,41.3,30.31,SSW,209,0.0,0.0,94,0.00,,,0.00,VWS V14.01,2013-10-29 08:08:00,
2013-10-29 04:10:00,43.1,41.5,30.31,SSW,209,0.0,0.0,94,0.00,,,0.00,VWS V14.01,2013-10-29 08:10:00,
2013-10-29 04:13:00,43.3,42.0,30.31,SSW,209,0.0,0.0,95,0.00,,,0.00,VWS V14.01,2013-10-29 08:13:00,
2013-10-29 04:20:00,44.2,42.9,30.31,SSW,209,0.0,0.0,95,0.00,,,0.00,VWS V14.01,2013-10-29 08:20:00,
2013-10-29 04:23:00,44.2,42.9,30.31,SSW,209,0.0,0.0,95,0.00,,,0.00,VWS V14.01,2013-10-29 08:23:00,
2013-10-29 04:28:00,44.6,43.3,30.31,SSW,209,0.0,0.0,95,0.00,,,0.00,VWS V14.01,2013-10-29 08:28:00,
2013-10-29 04:30:00,43.3,41.7,30.31,SSW,209,0.0,0.0,94,0.00,,,0.00,VWS V14.01,2013-10-29 08:30:00,
2013-10-29 04:33:00,44.8,43.7,30.31,SSW,209,0.0,0.0,96,0.00,,,0.00,VWS V14.01,2013-10-29 08:33:00,
2013-10-29 04:40:00,44.2,42.9,30.31,SSW,209,0.0,0.0,95,0.00,,,0.00,VWS V14.01,2013-10-29 08:40:00,
2013-10-29 04:43:00,43.9,42.6,30.31,SSW,209,0.0,0.0,95,0.00,,,0.00,VWS V14.01,2013-10-29 08:43:00,
2013-10-29 04:48:00,43.6,42.3,30.31,SSW,209,0.0,0.0,95,0.00,,,0.00,VWS V14.01,2013-10-29 08:48:00,
2013-10-29 04:50:00,43.6,42.3,30.31,SSW,209,0.0,0.0,95,0.00,,,0.00,VWS V14.01,2013-10-29 08:50:00,
2013-10-29 04:53:00,43.6,42.3,30.31,SSW,209,0.0,0.0,95,0.00,,,0.00,VWS V14.01,2013-10-29 08:53:00,
2013-10-29 05:00:00,42.9,41.3,30.31,SSW,209,0.0,0.0,94,0.00,,,0.00,VWS V14.01,2013-10-29 09:00:00,
2013-10-29 05:10:00,45.1,44.0,30.32,SSW,209,0.0,0.0,96,0.00,,,0.00,VWS V14.01,2013-10-29 09:10:00,
2013-10-29 05:20:00,45.8,44.7,30.32,SSW,209,0.0,0.0,96,0.00,,,0.00,VWS V14.01,2013-10-29 09:20:00,
2013-10-29 05:23:00,44.2,42.9,30.31,SSW,209,0.0,0.0,95,0.00,,,0.00,VWS V14.01,2013-10-29 09:23:00,
2013-10-29 05:28:00,46.0,44.9,30.32,SSW,209,0.0,0.0,96,0.00,,,0.00,VWS V14.01,2013-10-29 09:28:00,
2013-10-29 05:30:00,44.8,43.7,30.31,SSW,209,0.0,0.0,96,0.00,,,0.00,VWS V14.01,2013-10-29 09:30:00,
2013-10-29 05:33:00,45.8,44.7,30.33,SSW,209,0.0,0.0,96,0.00,,,0.00,VWS V14.01,2013-10-29 09:33:00,
2013-10-29 05:35:00,44.8,43.7,30.31,SSW,209,0.0,0.0,96,0.00,,,0.00,VWS V14.01,2013-10-29 09:35:00,
2013-10-29 05:40:00,44.2,42.9,30.31,SSW,209,0.0,0.0,95,0.00,,,0.00,VWS V14.01,2013-10-29 09:40:00,
2013-10-29 05:43:00,44.5,43.2,30.31,SSW,209,0.0,0.0,95,0.00,,,0.00,VWS V14.01,2013-10-29 09:43:00,
2013-10-29 05:50:00,43.6,42.3,30.31,SSW,209,0.0,0.0,95,0.00,,,0.00,VWS V14.01,2013-10-29 09:50:00,
2013-10-29 06:00:00,45.5,44.4,30.35,SSW,209,0.0,0.0,96,0.00,,,0.00,VWS V14.01,2013-10-29 10:00:00,
2013-10-29 06:03:00,44.1,43.0,30.31,SSW,209,0.0,0.0,96,0.00,,,0.00,VWS V14.01,2013-10-29 10:03:00,
2013-10-29 06:08:00,44.5,43.4,30.32,SSW,209,0.0,0.0,96,0.00,,,0.00,VWS V14.01,2013-10-29 10:08:00,
2013-10-29 06:10:00,45.7,44.6,30.35,SSW,209,0.0,0.0,96,0.00,,,0.00,VWS V14.01,2013-10-29 10:10:00,
2013-10-29 06:13:00,44.9,43.8,30.32,SSW,209,0.0,0.0,96,0.00,,,0.00,VWS V14.01,2013-10-29 10:13:00,
2013-10-29 06:18:00,45.4,44.3,30.32,SSW,209,0.0,0.0,96,0.00,,,0.00,VWS V14.01,2013-10-29 10:18:00,
2013-10-29 06:20:00,45.8,44.7,30.32,SSW,209,0.0,0.0,96,0.00,,,0.00,VWS V14.01,2013-10-29 10:20:00,
2013-10-29 06:23:00,45.8,44.7,30.32,SSW,209,0.0,0.0,96,0.00,,,0.00,VWS V14.01,2013-10-29 10:23:00,
2013-10-29 06:28:00,46.0,45.2,30.32,SSW,209,0.0,0.0,97,0.00,,,0.00,VWS V14.01,2013-10-29 10:28:00,
2013-10-29 06:30:00,45.8,44.7,30.33,SSW,209,0.0,0.0,96,0.00,,,0.00,VWS V14.01,2013-10-29 10:30:00,
2013-10-29 06:35:00,45.8,44.7,30.33,SSW,209,0.0,0.0,96,0.00,,,0.00,VWS V14.01,2013-10-29 10:35:00,
2013-10-29 06:40:00,45.5,44.7,30.34,SSW,209,0.0,0.0,97,0.00,,,0.00,VWS V14.01,2013-10-29 10:40:00,
2013-10-29 06:43:00,45.4,44.3,30.33,SSW,209,0.0,0.0,96,0.00,,,0.00,VWS V14.01,2013-10-29 10:43:00,
2013-10-29 06:50:00,45.4,44.3,30.34,SSW,209,0.0,0.0,96,0.00,,,0.00,VWS V14.01,2013-10-29 10:50:00,
2013-10-29 06:53:00,45.4,44.3,30.34,SSW,209,0.0,0.0,96,0.00,,,0.00,VWS V14.01,2013-10-29 10:53:00,
2013-10-29 06:58:00,45.4,44.3,30.34,SSW,209,0.0,0.0,96,0.00,,,0.00,VWS V14.01,2013-10-29 10:58:00,
2013-10-29 07:00:00,45.5,44.4,30.35,SSW,209,0.0,0.0,96,0.00,,,0.00,VWS V14.01,2013-10-29 11:00:00,
2013-10-29 07:03:00,45.5,44.4,30.34,SSW,209,0.0,0.0,96,0.00,,,0.00,VWS V14.01,2013-10-29 11:03:00,
2013-10-29 07:08:00,45.5,44.4,30.35,SSW,209,0.0,0.0,96,0.00,,,0.00,VWS V14.01,2013-10-29 11:08:00,
2013-10-29 07:10:00,45.7,44.6,30.35,SSW,209,0.0,0.0,96,0.00,,,0.00,VWS V14.01,2013-10-29 11:10:00,
2013-10-29 07:13:00,45.7,44.6,30.35,SSW,209,0.0,0.0,96,0.00,,,0.00,VWS V14.01,2013-10-29 11:13:00,
2013-10-29 07:18:00,45.7,44.9,30.35,SSW,209,0.0,0.0,97,0.00,,,0.00,VWS V14.01,2013-10-29 11:18:00,
2013-10-29 07:20:00,45.7,44.9,30.34,SSW,209,0.0,0.0,97,0.00,,,0.00,VWS V14.01,2013-10-29 11:20:00,
2013-10-29 07:23:00,45.7,44.9,30.34,SSW,209,0.0,0.0,97,0.00,,,0.00,VWS V14.01,2013-10-29 11:23:00,
2013-10-29 07:28:00,45.7,44.9,30.34,SSW,209,0.0,0.0,97,0.00,,,0.00,VWS V14.01,2013-10-29 11:28:00,
2013-10-29 07:30:00,45.7,44.9,30.34,SSW,209,0.0,0.0,97,0.00,,,0.00,VWS V14.01,2013-10-29 11:30:00,
2013-10-29 07:35:00,45.7,44.9,30.34,SSW,209,0.0,0.0,97,0.00,,,0.00,VWS V14.01,2013-10-29 11:35:00,
2013-10-29 07:40:00,45.5,44.7,30.34,SSW,209,0.0,0.0,97,0.00,,,0.00,VWS V14.01,2013-10-29 11:40:00,
2013-10-29 07:43:00,46.1,45.3,30.33,SSW,209,0.0,0.0,97,0.00,,,0.00,VWS V14.01,2013-10-29 11:43:00,
2013-10-29 07:44:00,45.5,44.7,30.34,SSW,209,0.0,0.0,97,0.00,,,0.00,VWS V14.01,2013-10-29 11:44:00,
2013-10-29 07:49:00,45.5,44.7,30.34,SSW,209,0.0,0.0,97,0.00,,,0.00,VWS V14.01,2013-10-29 11:49:00,
2013-10-29 07:50:00,45.5,44.7,30.34,SSW,209,0.0,0.0,97,0.00,,,0.00,VWS V14.01,2013-10-29 11:50:00,
2013-10-29 07:54:00,45.5,44.7,30.34,SSW,209,0.0,0.0,97,0.00,,,0.00,VWS V14.01,2013-10-29 11:54:00,
2013-10-29 08:00:00,45.5,44.7,30.33,SSW,209,0.0,0.0,97,0.00,,,0.00,VWS V14.01,2013-10-29 12:00:00,
2013-10-29 08:04:00,45.5,44.7,30.34,SSW,209,0.0,0.0,97,0.00,,,0.00,VWS V14.01,2013-10-29 12:04:00,
2013-10-29 08:09:00,45.4,44.6,30.33,SSW,209,0.0,0.0,97,0.00,,,0.00,VWS V14.01,2013-10-29 12:09:00,
2013-10-29 08:10:00,45.4,44.6,30.33,SSW,209,0.0,0.0,97,0.00,,,0.00,VWS V14.01,2013-10-29 12:10:00,
2013-10-29 08:15:00,45.4,44.6,30.33,SSW,209,0.0,0.0,97,0.00,,,0.00,VWS V14.01,2013-10-29 12:15:00,
2013-10-29 08:20:00,45.4,44.6,30.33,SSW,209,0.0,0.0,97,0.00,,,0.00,VWS V14.01,2013-10-29 12:20:00,
2013-10-29 08:23:00,48.2,47.7,30.33,SSW,209,0.0,0.0,98,0.00,,,0.00,VWS V14.01,2013-10-29 12:23:00,
2013-10-29 08:24:00,45.4,44.6,30.33,SSW,209,0.0,0.0,97,0.00,,,0.00,VWS V14.01,2013-10-29 12:24:00,
2013-10-29 08:29:00,45.4,44.6,30.33,SSW,209,0.0,0.0,97,0.00,,,0.00,VWS V14.01,2013-10-29 12:29:00,
2013-10-29 08:30:00,45.5,44.7,30.33,SSW,209,0.0,0.0,97,0.00,,,0.00,VWS V14.01,2013-10-29 12:30:00,
2013-10-29 08:34:00,45.5,44.7,30.33,SSW,209,0.0,0.0,97,0.00,,,0.00,VWS V14.01,2013-10-29 12:34:00,
2013-10-29 08:39:00,45.7,44.9,30.33,SSW,209,0.0,0.0,97,0.00,,,0.00,VWS V14.01,2013-10-29 12:39:00,
2013-10-29 08:40:00,49.5,49.0,30.33,SSW,209,0.0,0.0,98,0.00,,,0.00,VWS V14.01,2013-10-29 12:40:00,
2013-10-29 08:44:00,45.8,45.0,30.33,SSW,209,0.0,0.0,97,0.00,,,0.00,VWS V14.01,2013-10-29 12:44:00,
2013-10-29 08:50:00,46.4,45.6,30.33,SSW,209,0.0,0.0,97,0.00,,,0.00,VWS V14.01,2013-10-29 12:50:00,
2013-10-29 08:54:00,46.4,45.6,30.33,SSW,209,0.0,0.0,97,0.00,,,0.00,VWS V14.01,2013-10-29 12:54:00,
2013-10-29 08:59:00,46.5,45.7,30.33,SSW,209,0.0,0.0,97,0.00,,,0.00,VWS V14.01,2013-10-29 12:59:00,
2013-10-29 09:00:00,47.0,46.2,30.33,SSW,209,0.0,0.0,97,0.00,,,0.00,VWS V14.01,2013-10-29 13:00:00,
2013-10-29 09:04:00,46.8,46.0,30.33,SSW,209,0.0,0.0,97,0.00,,,0.00,VWS V14.01,2013-10-29 13:04:00,
2013-10-29 09:09:00,47.1,46.3,30.33,SSW,209,0.0,0.0,97,0.00,,,0.00,VWS V14.01,2013-10-29 13:09:00,
2013-10-29 09:10:00,47.4,46.6,30.33,SSW,209,0.0,0.0,97,0.00,,,0.00,VWS V14.01,2013-10-29 13:10:00,
2013-10-29 09:14:00,47.4,46.6,30.33,SSW,209,0.0,0.0,97,0.00,,,0.00,VWS V14.01,2013-10-29 13:14:00,
2013-10-29 09:19:00,47.6,46.8,30.33,SSW,209,0.0,0.0,97,0.00,,,0.00,VWS V14.01,2013-10-29 13:19:00,
2013-10-29 09:20:00,48.0,47.2,30.33,SSW,209,0.0,0.0,97,0.00,,,0.00,VWS V14.01,2013-10-29 13:20:00,
2013-10-29 09:23:00,52.6,52.0,30.36,SSW,209,0.0,0.0,98,0.00,,,0.00,VWS V14.01,2013-10-29 13:23:00,
2013-10-29 09:24:00,47.9,47.1,30.33,SSW,209,0.0,0.0,97,0.00,,,0.00,VWS V14.01,2013-10-29 13:24:00,
2013-10-29 09:30:00,48.8,48.3,30.33,SSW,209,0.0,0.0,98,0.00,,,0.00,VWS V14.01,2013-10-29 13:30:00,
2013-10-29 09:34:00,48.6,48.1,30.33,SSW,209,0.0,0.0,98,0.00,,,0.00,VWS V14.01,2013-10-29 13:34:00,
2013-10-29 09:39:00,49.1,48.6,30.33,SSW,209,0.0,0.0,98,0.00,,,0.00,VWS V14.01,2013-10-29 13:39:00,
2013-10-29 09:40:00,49.5,49.0,30.33,SSW,209,0.0,0.0,98,0.00,,,0.00,VWS V14.01,2013-10-29 13:40:00,
2013-10-29 09:44:00,49.5,49.0,30.33,SSW,209,0.0,0.0,98,0.00,,,0.00,VWS V14.01,2013-10-29 13:44:00,
2013-10-29 09:49:00,49.8,49.3,30.33,SSW,209,0.0,0.0,98,0.00,,,0.00,VWS V14.01,2013-10-29 13:49:00,
2013-10-29 09:50:00,50.2,49.7,30.34,SSW,209,0.0,0.0,98,0.00,,,0.00,VWS V14.01,2013-10-29 13:50:00,
2013-10-29 09:54:00,50.1,49.6,30.34,SSW,209,0.0,0.0,98,0.00,,,0.00,VWS V14.01,2013-10-29 13:54:00,
2013-10-29 09:59:00,50.5,50.0,30.34,SSW,209,0.0,0.0,98,0.00,,,0.00,VWS V14.01,2013-10-29 13:59:00,
2013-10-29 10:00:00,51.0,50.5,30.35,SSW,209,0.0,0.0,98,0.00,,,0.00,VWS V14.01,2013-10-29 14:00:00,
2013-10-29 10:04:00,50.8,50.3,30.34,SSW,209,0.0,0.0,98,0.00,,,0.00,VWS V14.01,2013-10-29 14:04:00,
2013-10-29 10:09:00,51.3,50.8,30.35,SSW,209,0.0,0.0,98,0.00,,,0.00,VWS V14.01,2013-10-29 14:09:00,
2013-10-29 10:10:00,52.9,52.3,30.36,SSW,209,0.0,0.0,98,0.00,,,0.00,VWS V14.01,2013-10-29 14:10:00,
2013-10-29 10:14:00,51.6,51.1,30.35,SSW,209,0.0,0.0,98,0.00,,,0.00,VWS V14.01,2013-10-29 14:14:00,
2013-10-29 10:19:00,51.9,51.4,30.35,SSW,209,0.0,0.0,98,0.00,,,0.00,VWS V14.01,2013-10-29 14:19:00,
2013-10-29 10:20:00,52.5,52.0,30.36,SSW,209,0.0,0.0,98,0.00,,,0.00,VWS V14.01,2013-10-29 14:20:00,
2013-10-29 10:24:00,52.3,51.8,30.36,SSW,209,0.0,0.0,98,0.00,,,0.00,VWS V14.01,2013-10-29 14:24:00,
2013-10-29 10:30:00,52.8,52.2,30.36,SSW,209,0.0,0.0,98,0.00,,,0.00,VWS V14.01,2013-10-29 14:30:00,
2013-10-29 10:34:00,52.8,52.2,30.36,SSW,209,0.0,0.0,98,0.00,,,0.00,VWS V14.01,2013-10-29 14:34:00,
2013-10-29 10:39:00,52.8,52.2,30.36,SSW,209,0.0,0.0,98,0.00,,,0.00,VWS V14.01,2013-10-29 14:39:00,
2013-10-29 10:40:00,52.5,52.0,30.36,SSW,209,0.0,0.0,98,0.00,,,0.00,VWS V14.01,2013-10-29 14:40:00,
2013-10-29 10:44:00,52.5,52.0,30.36,SSW,209,0.0,0.0,98,0.00,,,0.00,VWS V14.01,2013-10-29 14:44:00,
2013-10-29 10:49:00,52.6,52.0,30.36,SSW,209,0.0,0.0,98,0.00,,,0.00,VWS V14.01,2013-10-29 14:49:00,
2013-10-29 10:50:00,52.8,52.2,30.36,SSW,209,0.0,0.0,98,0.00,,,0.00,VWS V14.01,2013-10-29 14:50:00,
2013-10-29 10:54:00,52.8,52.2,30.36,SSW,209,0.0,0.0,98,0.00,,,0.00,VWS V14.01,2013-10-29 14:54:00,
2013-10-29 10:59:00,52.8,52.2,30.36,SSW,209,0.0,0.0,98,0.00,,,0.00,VWS V14.01,2013-10-29 14:59:00,
2013-10-29 11:00:00,52.8,52.2,30.36,SSW,209,0.0,0.0,98,0.00,,,0.00,VWS V14.01,2013-10-29 15:00:00,
2013-10-29 11:04:00,52.8,52.2,30.36,SSW,209,0.0,0.0,98,0.00,,,0.00,VWS V14.01,2013-10-29 15:04:00,
2013-10-29 11:09:00,52.8,52.2,30.36,SSW,209,0.0,0.0,98,0.00,,,0.00,VWS V14.01,2013-10-29 15:09:00,
2013-10-29 11:10:00,52.9,52.3,30.36,SSW,209,0.0,0.0,98,0.00,,,0.00,VWS V14.01,2013-10-29 15:10:00,
2013-10-29 11:14:00,52.9,52.3,30.36,SSW,209,0.0,0.0,98,0.00,,,0.00,VWS V14.01,2013-10-29 15:14:00,
2013-10-29 11:19:00,53.1,52.5,30.36,SSW,209,0.0,0.0,98,0.00,,,0.00,VWS V14.01,2013-10-29 15:19:00,
2013-10-29 11:20:00,53.2,52.7,30.35,SSW,209,0.0,0.0,98,0.00,,,0.00,VWS V14.01,2013-10-29 15:20:00,
2013-10-29 11:24:00,53.1,52.5,30.35,SSW,209,0.0,0.0,98,0.00,,,0.00,VWS V14.01,2013-10-29 15:24:00,
2013-10-29 11:29:00,53.2,52.7,30.35,SSW,209,0.0,0.0,98,0.00,,,0.00,VWS V14.01,2013-10-29 15:29:00,
2013-10-29 11:30:00,53.2,52.7,30.35,SSW,209,0.0,0.0,98,0.00,,,0.00,VWS V14.01,2013-10-29 15:30:00,
2013-10-29 11:34:00,53.2,52.4,30.35,SSW,209,0.0,0.0,97,0.00,,,0.00,VWS V14.01,2013-10-29 15:34:00,
2013-10-29 11:39:00,53.2,52.7,30.35,SSW,209,0.0,0.0,98,0.00,,,0.00,VWS V14.01,2013-10-29 15:39:00,
2013-10-29 11:40:00,53.5,53.0,30.35,SSW,209,0.0,0.0,98,0.00,,,0.00,VWS V14.01,2013-10-29 15:40:00,
2013-10-29 11:44:00,53.5,52.7,30.35,SSW,209,0.0,0.0,97,0.00,,,0.00,VWS V14.01,2013-10-29 15:44:00,
2013-10-29 11:49:00,53.8,53.0,30.35,SSW,209,0.0,0.0,97,0.00,,,0.00,VWS V14.01,2013-10-29 15:49:00,
2013-10-29 11:50:00,53.9,53.1,30.35,SSW,209,0.0,0.0,97,0.00,,,0.00,VWS V14.01,2013-10-29 15:50:00,
2013-10-29 11:54:00,53.9,53.1,30.35,SSW,209,0.0,0.0,97,0.00,,,0.00,VWS V14.01,2013-10-29 15:54:00,
2013-10-29 11:59:00,53.9,53.1,30.35,SSW,209,0.0,0.0,97,0.00,,,0.00,VWS V14.01,2013-10-29 15:59:00,
2013-10-29 12:00:00,54.2,53.4,30.35,SSW,209,0.0,0.0,97,0.00,,,0.00,VWS V14.01,2013-10-29 16:00:00,
2013-10-29 12:04:00,54.1,53.3,30.35,SSW,209,0.0,0.0,97,0.00,,,0.00,VWS V14.01,2013-10-29 16:04:00,
2013-10-29 12:09:00,54.5,53.7,30.35,SSW,209,0.0,0.0,97,0.00,,,0.00,VWS V14.01,2013-10-29 16:09:00,
2013-10-29 12:10:00,54.8,54.0,30.35,SSW,209,0.0,0.0,97,0.00,,,0.00,VWS V14.01,2013-10-29 16:10:00,
2013-10-29 12:14:00,54.8,54.0,30.35,SSW,209,0.0,0.0,97,0.00,,,0.00,VWS V14.01,2013-10-29 16:14:00,
2013-10-29 12:19:00,55.1,54.3,30.35,SSW,209,0.0,0.0,97,0.00,,,0.00,VWS V14.01,2013-10-29 16:19:00,
2013-10-29 12:20:00,55.4,54.3,30.35,SSW,209,1.0,0.0,96,0.00,,,0.00,VWS V14.01,2013-10-29 16:20:00,
2013-10-29 12:24:00,55.3,54.5,30.35,SSW,209,0.0,0.0,97,0.00,,,0.00,VWS V14.01,2013-10-29 16:24:00,
2013-10-29 12:29:00,55.6,54.5,30.35,SSW,209,0.0,0.0,96,0.00,,,0.00,VWS V14.01,2013-10-29 16:29:00,
2013-10-29 12:30:00,55.7,54.3,30.34,SSW,209,0.0,0.0,95,0.00,,,0.00,VWS V14.01,2013-10-29 16:30:00,
2013-10-29 12:34:00,55.7,54.6,30.34,SSW,209,0.0,0.0,96,0.00,,,0.00,VWS V14.01,2013-10-29 16:34:00,
2013-10-29 12:39:00,56.0,54.3,30.34,SSW,209,0.0,0.0,94,0.00,,,0.00,VWS V14.01,2013-10-29 16:39:00,
2013-10-29 12:40:00,56.0,54.0,30.34,SSW,209,0.0,0.0,93,0.00,,,0.00,VWS V14.01,2013-10-29 16:40:00,
2013-10-29 12:44:00,56.0,54.0,30.34,SSW,209,0.0,0.0,93,0.00,,,0.00,VWS V14.01,2013-10-29 16:44:00,
2013-10-29 12:49:00,56.0,53.7,30.34,SSW,209,0.0,0.0,92,0.00,,,0.00,VWS V14.01,2013-10-29 16:49:00,
2013-10-29 12:50:00,56.0,53.7,30.34,SSW,209,0.0,0.0,92,0.00,,,0.00,VWS V14.01,2013-10-29 16:50:00,
2013-10-29 12:54:00,56.0,53.7,30.34,SSW,209,0.0,0.0,92,0.00,,,0.00,VWS V14.01,2013-10-29 16:54:00,
2013-10-29 12:59:00,56.2,53.9,30.34,SSW,209,0.0,0.0,92,0.00,,,0.00,VWS V14.01,2013-10-29 16:59:00,
2013-10-29 13:00:00,56.0,53.4,30.33,SSW,209,0.0,0.0,91,0.00,,,0.00,VWS V14.01,2013-10-29 17:00:00,
2013-10-29 13:04:00,56.0,53.4,30.33,SSW,209,0.0,0.0,91,0.00,,,0.00,VWS V14.01,2013-10-29 17:04:00,
2013-10-29 13:09:00,56.0,53.4,30.33,SSW,209,0.0,0.0,91,0.00,,,0.00,VWS V14.01,2013-10-29 17:09:00,
2013-10-29 13:10:00,56.2,53.6,30.33,SSW,209,0.0,0.0,91,0.00,,,0.00,VWS V14.01,2013-10-29 17:10:00,
2013-10-29 13:14:00,56.2,53.6,30.33,SSW,209,0.0,0.0,91,0.00,,,0.00,VWS V14.01,2013-10-29 17:14:00,
2013-10-29 13:19:00,56.2,53.3,30.33,SSW,209,0.0,0.0,90,0.00,,,0.00,VWS V14.01,2013-10-29 17:19:00,
2013-10-29 13:20:00,56.3,53.4,30.33,SSW,209,0.0,0.0,90,0.00,,,0.00,VWS V14.01,2013-10-29 17:20:00,
2013-10-29 13:24:00,56.3,53.4,30.33,SSW,209,0.0,0.0,90,0.00,,,0.00,VWS V14.01,2013-10-29 17:24:00,
2013-10-29 13:29:00,56.5,53.6,30.33,SSW,209,0.0,0.0,90,0.00,,,0.00,VWS V14.01,2013-10-29 17:29:00,
2013-10-29 13:30:00,56.6,53.4,30.33,SSW,209,0.0,0.0,89,0.00,,,0.00,VWS V14.01,2013-10-29 17:30:00,
2013-10-29 13:34:00,56.6,53.4,30.33,SSW,209,0.0,0.0,89,0.00,,,0.00,VWS V14.01,2013-10-29 17:34:00,
2013-10-29 13:39:00,56.7,53.2,30.33,SSW,209,0.0,0.0,88,0.00,,,0.00,VWS V14.01,2013-10-29 17:39:00,
2013-10-29 13:40:00,56.9,53.4,30.33,SSW,209,0.0,0.0,88,0.00,,,0.00,VWS V14.01,2013-10-29 17:40:00,
2013-10-29 13:44:00,56.9,53.4,30.33,SSW,209,0.0,0.0,88,0.00,,,0.00,VWS V14.01,2013-10-29 17:44:00,
2013-10-29 13:49:00,57.0,53.2,30.32,SSW,209,0.0,0.0,87,0.00,,,0.00,VWS V14.01,2013-10-29 17:49:00,
2013-10-29 13:50:00,57.3,53.2,30.32,SSW,209,0.0,0.0,86,0.00,,,0.00,VWS V14.01,2013-10-29 17:50:00,
2013-10-29 13:54:00,57.3,53.2,30.32,SSW,209,0.0,0.0,86,0.00,,,0.00,VWS V14.01,2013-10-29 17:54:00,
2013-10-29 13:59:00,57.6,53.1,30.32,SSW,209,0.0,0.0,85,0.00,,,0.00,VWS V14.01,2013-10-29 17:59:00,
2013-10-29 14:00:00,58.0,53.2,30.30,SSW,209,0.0,0.0,84,0.00,,,0.00,VWS V14.01,2013-10-29 18:00:00,
2013-10-29 14:04:00,58.0,53.5,30.30,SSW,209,0.0,0.0,85,0.00,,,0.00,VWS V14.01,2013-10-29 18:04:00,
2013-10-29 14:09:00,58.3,53.2,30.30,SSW,209,0.0,0.0,83,0.00,,,0.00,VWS V14.01,2013-10-29 18:09:00,
2013-10-29 14:10:00,58.4,53.3,30.30,SSW,209,0.0,0.0,83,0.00,,,0.00,VWS V14.01,2013-10-29 18:10:00,
2013-10-29 14:14:00,58.4,53.3,30.30,SSW,209,0.0,0.0,83,0.00,,,0.00,VWS V14.01,2013-10-29 18:14:00,
2013-10-29 14:19:00,58.7,53.2,30.29,SSW,209,0.0,0.0,82,0.00,,,0.00,VWS V14.01,2013-10-29 18:19:00,
2013-10-29 14:20:00,58.9,53.1,30.29,SSW,209,0.0,0.0,81,0.00,,,0.00,VWS V14.01,2013-10-29 18:20:00,
2013-10-29 14:24:00,58.9,53.1,30.29,SSW,209,0.0,0.0,81,0.00,,,0.00,VWS V14.01,2013-10-29 18:24:00,
2013-10-29 14:29:00,59.0,53.2,30.29,SSW,209,0.0,0.0,81,0.00,,,0.00,VWS V14.01,2013-10-29 18:29:00,
2013-10-29 14:30:00,59.2,53.0,30.28,SSW,209,0.0,0.0,80,0.00,,,0.00,VWS V14.01,2013-10-29 18:30:00,
2013-10-29 14:34:00,59.2,53.0,30.28,SSW,209,0.0,0.0,80,0.00,,,0.00,VWS V14.01,2013-10-29 18:34:00,
2013-10-29 14:40:00,59.5,53.3,30.28,SSW,209,0.0,0.0,80,0.00,,,0.00,VWS V14.01,2013-10-29 18:40:00,
2013-10-29 14:45:00,59.5,53.3,30.28,SSW,209,0.0,0.0,80,0.00,,,0.00,VWS V14.01,2013-10-29 18:45:00,
2013-10-29 14:50:00,59.6,53.1,30.28,SSW,209,0.0,0.0,79,0.00,,,0.00,VWS V14.01,2013-10-29 18:50:00,
2013-10-29 14:55:00,59.8,53.3,30.28,SSW,209,0.0,0.0,79,0.00,,,0.00,VWS V14.01,2013-10-29 18:55:00,
2013-10-29 15:00:00,59.9,53.4,30.28,SSW,209,0.0,0.0,79,0.00,,,0.00,VWS V14.01,2013-10-29 19:00:00,
2013-10-29 15:05:00,59.9,53.4,30.28,SSW,209,0.0,0.0,79,0.00,,,0.00,VWS V14.01,2013-10-29 19:05:00,
2013-10-29 15:10:00,60.1,53.2,30.28,SSW,209,0.0,0.0,78,0.00,,,0.00,VWS V14.01,2013-10-29 19:10:00,
2013-10-29 15:15:00,60.2,53.3,30.28,SSW,209,0.0,0.0,78,0.00,,,0.00,VWS V14.01,2013-10-29 19:15:00,
2013-10-29 15:20:00,60.4,53.5,30.28,SSW,209,0.0,0.0,78,0.00,,,0.00,VWS V14.01,2013-10-29 19:20:00,
2013-10-29 15:25:00,60.4,53.5,30.28,SSW,209,0.0,0.0,78,0.00,,,0.00,VWS V14.01,2013-10-29 19:25:00,
2013-10-29 15:30:00,60.5,53.6,30.28,SSW,209,0.0,0.0,78,0.00,,,0.00,VWS V14.01,2013-10-29 19:30:00,
2013-10-29 15:35:00,60.4,53.5,30.28,SSW,209,0.0,0.0,78,0.00,,,0.00,VWS V14.01,2013-10-29 19:35:00,
2013-10-29 15:40:00,60.4,53.9,30.28,SSW,209,0.0,0.0,79,0.00,,,0.00,VWS V14.01,2013-10-29 19:40:00,
2013-10-29 15:45:00,60.4,53.9,30.28,SSW,209,0.0,0.0,79,0.00,,,0.00,VWS V14.01,2013-10-29 19:45:00,
2013-10-29 15:50:00,60.4,53.9,30.27,SSW,209,0.0,0.0,79,0.00,,,0.00,VWS V14.01,2013-10-29 19:50:00,
2013-10-29 15:55:00,60.4,53.9,30.27,SSW,209,0.0,0.0,79,0.00,,,0.00,VWS V14.01,2013-10-29 19:55:00,
2013-10-29 16:00:00,60.2,53.7,30.27,SSW,209,0.0,0.0,79,0.00,,,0.00,VWS V14.01,2013-10-29 20:00:00,
2013-10-29 16:05:00,60.2,54.0,30.27,SSW,209,0.0,0.0,80,0.00,,,0.00,VWS V14.01,2013-10-29 20:05:00,
2013-10-29 16:10:00,60.2,53.7,30.27,SSW,209,0.0,0.0,79,0.00,,,0.00,VWS V14.01,2013-10-29 20:10:00,
2013-10-29 16:15:00,60.2,54.0,30.27,SSW,209,0.0,0.0,80,0.00,,,0.00,VWS V14.01,2013-10-29 20:15:00,
2013-10-29 16:20:00,60.2,54.0,30.27,SSW,209,0.0,0.0,80,0.00,,,0.00,VWS V14.01,2013-10-29 20:20:00,
2013-10-29 16:25:00,60.2,54.0,30.27,SSW,209,0.0,0.0,80,0.00,,,0.00,VWS V14.01,2013-10-29 20:25:00,
2013-10-29 16:30:00,60.1,54.3,30.27,SSW,209,0.0,0.0,81,0.00,,,0.00,VWS V14.01,2013-10-29 20:30:00,
2013-10-29 16:35:00,60.1,53.9,30.28,SSW,209,0.0,0.0,80,0.00,,,0.00,VWS V14.01,2013-10-29 20:35:00,
2013-10-29 16:40:00,60.2,54.0,30.28,SSW,209,0.0,0.0,80,0.00,,,0.00,VWS V14.01,2013-10-29 20:40:00,
2013-10-29 16:45:00,60.2,54.4,30.28,SSW,209,0.0,0.0,81,0.00,,,0.00,VWS V14.01,2013-10-29 20:45:00,
2013-10-29 16:50:00,60.1,54.3,30.27,SSW,209,0.0,0.0,81,0.00,,,0.00,VWS V14.01,2013-10-29 20:50:00,
2013-10-29 16:55:00,60.1,54.3,30.27,SSW,209,0.0,0.0,81,0.00,,,0.00,VWS V14.01,2013-10-29 20:55:00,
2013-10-29 17:00:00,59.9,54.1,30.27,SSW,209,0.0,0.0,81,0.00,,,0.00,VWS V14.01,2013-10-29 21:00:00,
2013-10-29 17:05:00,59.9,54.1,30.27,SSW,209,0.0,0.0,81,0.00,,,0.00,VWS V14.01,2013-10-29 21:05:00,
2013-10-29 17:10:00,59.8,54.3,30.27,SSW,209,0.0,0.0,82,0.00,,,0.00,VWS V14.01,2013-10-29 21:10:00,
2013-10-29 17:15:00,59.8,54.3,30.27,SSW,209,0.0,0.0,82,0.00,,,0.00,VWS V14.01,2013-10-29 21:15:00,
2013-10-29 17:20:00,59.8,54.3,30.27,SSW,209,0.0,0.0,82,0.00,,,0.00,VWS V14.01,2013-10-29 21:20:00,
2013-10-29 17:25:00,59.6,54.1,30.27,SSW,209,0.0,0.0,82,0.00,,,0.00,VWS V14.01,2013-10-29 21:25:00,
2013-10-29 17:30:00,59.6,54.4,30.27,SSW,209,0.0,0.0,83,0.00,,,0.00,VWS V14.01,2013-10-29 21:30:00,
2013-10-29 17:35:00,59.5,54.3,30.26,SSW,209,0.0,0.0,83,0.00,,,0.00,VWS V14.01,2013-10-29 21:35:00,
2013-10-29 17:40:00,59.3,54.2,30.26,SSW,209,0.0,0.0,83,0.00,,,0.00,VWS V14.01,2013-10-29 21:40:00,
2013-10-29 17:45:00,59.2,54.0,30.26,SSW,209,0.0,0.0,83,0.00,,,0.00,VWS V14.01,2013-10-29 21:45:00,
2013-10-29 17:50:00,59.0,54.2,30.24,SSW,209,0.0,0.0,84,0.00,,,0.00,VWS V14.01,2013-10-29 21:50:00,
2013-10-29 17:55:00,58.9,54.1,30.24,SSW,209,0.0,0.0,84,0.00,,,0.00,VWS V14.01,2013-10-29 21:55:00,
2013-10-29 18:00:00,58.7,54.2,30.24,SSW,209,0.0,0.0,85,0.00,,,0.00,VWS V14.01,2013-10-29 22:00:00,
2013-10-29 18:05:00,58.6,54.1,30.24,SSW,209,0.0,0.0,85,0.00,,,0.00,VWS V14.01,2013-10-29 22:05:00,
2013-10-29 18:10:00,58.6,54.4,30.24,SSW,209,0.0,0.0,86,0.00,,,0.00,VWS V14.01,2013-10-29 22:10:00,
2013-10-29 18:15:00,58.4,54.2,30.24,SSW,209,0.0,0.0,86,0.00,,,0.00,VWS V14.01,2013-10-29 22:15:00,
2013-10-29 18:20:00,58.4,54.2,30.24,SSW,209,0.0,0.0,86,0.00,,,0.00,VWS V14.01,2013-10-29 22:20:00,
2013-10-29 18:25:00,58.3,54.1,30.24,SSW,209,0.0,0.0,86,0.00,,,0.00,VWS V14.01,2013-10-29 22:25:00,
2013-10-29 18:30:00,58.3,54.1,30.24,SSW,209,0.0,0.0,86,0.00,,,0.00,VWS V14.01,2013-10-29 22:30:00,
2013-10-29 18:35:00,58.1,53.9,30.24,SSW,209,0.0,0.0,86,0.00,,,0.00,VWS V14.01,2013-10-29 22:35:00,
2013-10-29 18:40:00,58.0,54.2,30.24,SSW,209,0.0,0.0,87,0.00,,,0.00,VWS V14.01,2013-10-29 22:40:00,
2013-10-29 18:45:00,58.0,54.2,30.24,SSW,209,0.0,0.0,87,0.00,,,0.00,VWS V14.01,2013-10-29 22:45:00,
2013-10-29 18:50:00,57.8,54.0,30.25,SSW,209,0.0,0.0,87,0.00,,,0.00,VWS V14.01,2013-10-29 22:50:00,
2013-10-29 18:55:00,57.8,54.0,30.25,SSW,209,0.0,0.0,87,0.00,,,0.00,VWS V14.01,2013-10-29 22:55:00,
2013-10-29 19:00:00,57.6,54.1,30.25,SSW,209,0.0,0.0,88,0.00,,,0.00,VWS V14.01,2013-10-29 23:00:00,
2013-10-29 19:05:00,57.6,54.1,30.23,SSW,209,0.0,0.0,88,0.00,,,0.00,VWS V14.01,2013-10-29 23:05:00,
2013-10-29 19:10:00,57.5,54.0,30.23,SSW,209,0.0,0.0,88,0.00,,,0.00,VWS V14.01,2013-10-29 23:10:00,
2013-10-29 19:15:00,57.6,54.1,30.23,SSW,209,0.0,0.0,88,0.00,,,0.00,VWS V14.01,2013-10-29 23:15:00,
2013-10-29 19:20:00,57.6,54.1,30.22,SSW,209,0.0,0.0,88,0.00,,,0.00,VWS V14.01,2013-10-29 23:20:00,
2013-10-29 19:25:00,57.6,54.1,30.22,SSW,209,0.0,0.0,88,0.00,,,0.00,VWS V14.01,2013-10-29 23:25:00,
2013-10-29 19:30:00,57.5,54.0,30.22,SSW,209,0.0,0.0,88,0.00,,,0.00,VWS V14.01,2013-10-29 23:30:00,
2013-10-29 19:35:00,57.5,54.0,30.22,SSW,209,0.0,0.0,88,0.00,,,0.00,VWS V14.01,2013-10-29 23:35:00,
2013-10-29 19:40:00,57.5,54.0,30.22,SSW,209,0.0,0.0,88,0.00,,,0.00,VWS V14.01,2013-10-29 23:40:00,
2013-10-29 19:45:00,57.3,54.1,30.22,SSW,209,0.0,0.0,89,0.00,,,0.00,VWS V14.01,2013-10-29 23:45:00,
2013-10-29 19:50:00,57.3,54.1,30.23,SSW,209,0.0,0.0,89,0.00,,,0.00,VWS V14.01,2013-10-29 23:50:00,
2013-10-29 19:55:00,57.3,54.1,30.23,SSW,209,0.0,0.0,89,0.00,,,0.00,VWS V14.01,2013-10-29 23:55:00,
2013-10-29 20:00:00,57.3,54.1,30.23,SSW,209,0.0,0.0,89,0.00,,,0.00,VWS V14.01,2013-10-30 00:00:00,
2013-10-29 20:05:00,57.3,54.1,30.22,SSW,209,0.0,0.0,89,0.00,,,0.00,VWS V14.01,2013-10-30 00:05:00,
2013-10-29 20:10:00,57.3,53.8,30.22,SSW,209,0.0,0.0,88,0.00,,,0.00,VWS V14.01,2013-10-30 00:10:00,
2013-10-29 20:11:00,57.3,54.1,30.22,SSW,209,0.0,0.0,89,0.00,,,0.00,VWS V14.01,2013-10-30 00:11:00,
2013-10-29 20:16:00,57.3,53.8,30.22,SSW,209,0.0,0.0,88,0.00,,,0.00,VWS V14.01,2013-10-30 00:16:00,
2013-10-29 20:20:00,57.3,53.8,30.22,SSW,209,0.0,0.0,88,0.00,,,0.00,VWS V14.01,2013-10-30 00:20:00,
2013-10-29 20:21:00,57.3,53.8,30.22,SSW,209,0.0,0.0,88,0.00,,,0.00,VWS V14.01,2013-10-30 00:21:00,
2013-10-29 20:26:00,57.3,53.8,30.22,SSW,209,0.0,0.0,88,0.00,,,0.00,VWS V14.01,2013-10-30 00:26:00,
2013-10-29 20:30:00,57.3,53.8,30.22,SSW,209,0.0,0.0,88,0.00,,,0.00,VWS V14.01,2013-10-30 00:30:00,
2013-10-29 20:31:00,57.3,53.8,30.22,SSW,209,0.0,0.0,88,0.00,,,0.00,VWS V14.01,2013-10-30 00:31:00,
2013-10-29 20:36:00,57.3,53.8,30.22,SSW,209,0.0,0.0,88,0.00,,,0.00,VWS V14.01,2013-10-30 00:36:00,
2013-10-29 20:40:00,57.2,53.7,30.22,SSW,209,0.0,0.0,88,0.00,,,0.00,VWS V14.01,2013-10-30 00:40:00,
2013-10-29 20:41:00,57.2,53.7,30.22,SSW,209,0.0,0.0,88,0.00,,,0.00,VWS V14.01,2013-10-30 00:41:00,
2013-10-29 20:46:00,57.2,53.7,30.22,SSW,209,0.0,0.0,88,0.00,,,0.00,VWS V14.01,2013-10-30 00:46:00,
2013-10-29 20:50:00,57.2,53.7,30.24,SSW,209,0.0,0.0,88,0.00,,,0.00,VWS V14.01,2013-10-30 00:50:00,
2013-10-29 20:51:00,57.2,53.7,30.24,SSW,209,0.0,0.0,88,0.00,,,0.00,VWS V14.01,2013-10-30 00:51:00,
2013-10-29 20:56:00,57.2,53.7,30.24,SSW,209,0.0,0.0,88,0.00,,,0.00,VWS V14.01,2013-10-30 00:56:00,
2013-10-29 21:00:00,57.0,53.5,30.24,SSW,209,0.0,0.0,88,0.00,,,0.00,VWS V14.01,2013-10-30 01:00:00,
2013-10-29 21:01:00,57.0,53.5,30.24,SSW,209,0.0,0.0,88,0.00,,,0.00,VWS V14.01,2013-10-30 01:01:00,
2013-10-29 21:06:00,57.0,53.5,30.24,SSW,209,0.0,0.0,88,0.00,,,0.00,VWS V14.01,2013-10-30 01:06:00,
2013-10-29 21:10:00,56.9,53.7,30.24,SSW,209,0.0,0.0,89,0.00,,,0.00,VWS V14.01,2013-10-30 01:10:00,
2013-10-29 21:11:00,57.0,53.8,30.24,SSW,209,0.0,0.0,89,0.00,,,0.00,VWS V14.01,2013-10-30 01:11:00,
2013-10-29 21:16:00,56.9,53.7,30.24,SSW,209,0.0,0.0,89,0.00,,,0.00,VWS V14.01,2013-10-30 01:16:00,
2013-10-29 21:20:00,56.9,53.7,30.23,SSW,209,0.0,0.0,89,0.00,,,0.00,VWS V14.01,2013-10-30 01:20:00,
2013-10-29 21:21:00,56.9,53.7,30.23,SSW,209,0.0,0.0,89,0.00,,,0.00,VWS V14.01,2013-10-30 01:21:00,
2013-10-29 21:26:00,56.9,53.7,30.23,SSW,209,0.0,0.0,89,0.00,,,0.00,VWS V14.01,2013-10-30 01:26:00,
2013-10-29 21:30:00,56.7,53.5,30.24,SSW,209,0.0,0.0,89,0.00,,,0.00,VWS V14.01,2013-10-30 01:30:00,
2013-10-29 21:31:00,56.7,53.5,30.23,SSW,209,0.0,0.0,89,0.00,,,0.00,VWS V14.01,2013-10-30 01:31:00,
2013-10-29 21:36:00,56.7,53.5,30.24,SSW,209,0.0,0.0,89,0.00,,,0.00,VWS V14.01,2013-10-30 01:36:00,
2013-10-29 21:40:00,56.7,53.5,30.24,SSW,209,0.0,0.0,89,0.00,,,0.00,VWS V14.01,2013-10-30 01:40:00,
2013-10-29 21:41:00,56.7,53.5,30.24,SSW,209,0.0,0.0,89,0.00,,,0.00,VWS V14.01,2013-10-30 01:41:00,
2013-10-29 21:46:00,56.7,53.5,30.24,SSW,209,0.0,0.0,89,0.00,,,0.00,VWS V14.01,2013-10-30 01:46:00,
2013-10-29 21:50:00,56.9,53.7,30.22,SSW,209,0.0,0.0,89,0.00,,,0.00,VWS V14.01,2013-10-30 01:50:00,
2013-10-29 21:51:00,56.9,53.7,30.22,SSW,209,0.0,0.0,89,0.00,,,0.00,VWS V14.01,2013-10-30 01:51:00,
2013-10-29 21:56:00,56.9,53.7,30.22,SSW,209,0.0,0.0,89,0.00,,,0.00,VWS V14.01,2013-10-30 01:56:00,
2013-10-29 22:00:00,56.7,53.5,30.23,SSW,209,0.0,0.0,89,0.00,,,0.00,VWS V14.01,2013-10-30 02:00:00,
2013-10-29 22:01:00,56.7,53.5,30.22,SSW,209,0.0,0.0,89,0.00,,,0.00,VWS V14.01,2013-10-30 02:01:00,
2013-10-29 22:06:00,56.7,53.5,30.23,SSW,209,0.0,0.0,89,0.00,,,0.00,VWS V14.01,2013-10-30 02:06:00,
2013-10-29 22:10:00,56.7,53.5,30.23,SSW,209,0.0,0.0,89,0.00,,,0.00,VWS V14.01,2013-10-30 02:10:00,
2013-10-29 22:11:00,56.7,53.5,30.23,SSW,209,0.0,0.0,89,0.00,,,0.00,VWS V14.01,2013-10-30 02:11:00,
2013-10-29 22:16:00,56.9,53.7,30.23,SSW,209,0.0,0.0,89,0.00,,,0.00,VWS V14.01,2013-10-30 02:16:00,
2013-10-29 22:20:00,56.9,53.7,30.24,SSW,209,0.0,0.0,89,0.00,,,0.00,VWS V14.01,2013-10-30 02:20:00,
2013-10-29 22:21:00,56.9,53.7,30.24,SSW,209,0.0,0.0,89,0.00,,,0.00,VWS V14.01,2013-10-30 02:21:00,
2013-10-29 22:26:00,56.9,53.7,30.24,SSW,209,0.0,0.0,89,0.00,,,0.00,VWS V14.01,2013-10-30 02:26:00,
2013-10-29 22:30:00,56.7,53.5,30.23,SSW,209,0.0,0.0,89,0.00,,,0.00,VWS V14.01,2013-10-30 02:30:00,
2013-10-29 22:31:00,56.7,53.5,30.24,SSW,209,0.0,0.0,89,0.00,,,0.00,VWS V14.01,2013-10-30 02:31:00,
2013-10-29 22:36:00,56.7,53.5,30.23,SSW,209,0.0,0.0,89,0.00,,,0.00,VWS V14.01,2013-10-30 02:36:00,
2013-10-29 22:40:00,56.7,53.5,30.23,SSW,209,0.0,0.0,89,0.00,,,0.00,VWS V14.01,2013-10-30 02:40:00,
2013-10-29 22:41:00,56.7,53.5,30.23,SSW,209,0.0,0.0,89,0.00,,,0.00,VWS V14.01,2013-10-30 02:41:00,
2013-10-29 22:46:00,56.7,53.5,30.23,SSW,209,0.0,0.0,89,0.00,,,0.00,VWS V14.01,2013-10-30 02:46:00,
2013-10-29 22:50:00,56.7,53.8,30.24,SSW,209,0.0,0.0,90,0.00,,,0.00,VWS V14.01,2013-10-30 02:50:00,
2013-10-29 22:51:00,56.7,53.5,30.24,SSW,209,0.0,0.0,89,0.00,,,0.00,VWS V14.01,2013-10-30 02:51:00,
2013-10-29 22:56:00,56.7,53.8,30.24,SSW,209,0.0,0.0,90,0.00,,,0.00,VWS V14.01,2013-10-30 02:56:00,
2013-10-29 23:00:00,55.9,53.9,30.22,SSW,209,0.0,0.0,93,0.03,,,0.00,VWS V14.01,2013-10-30 03:00:00,
2013-10-29 23:01:00,56.7,53.8,30.24,SSW,209,0.0,0.0,90,0.01,,,0.01,VWS V14.01,2013-10-30 03:01:00,
2013-10-29 23:06:00,56.6,53.7,30.25,SSW,209,0.0,0.0,90,0.01,,,0.01,VWS V14.01,2013-10-30 03:06:00,
2013-10-29 23:10:00,55.9,54.2,30.22,SSW,209,0.0,0.0,94,0.02,,,0.00,VWS V14.01,2013-10-30 03:10:00,
2013-10-29 23:11:00,56.6,54.0,30.25,SSW,209,0.0,0.0,91,0.01,,,0.01,VWS V14.01,2013-10-30 03:11:00,
2013-10-29 23:16:00,56.5,53.9,30.25,SSW,209,0.0,0.0,91,0.01,,,0.01,VWS V14.01,2013-10-30 03:16:00,
2013-10-29 23:20:00,55.7,54.0,30.21,SSW,209,0.0,0.0,94,0.02,,,0.00,VWS V14.01,2013-10-30 03:20:00,
2013-10-29 23:21:00,56.5,54.2,30.24,SSW,209,0.0,0.0,92,0.01,,,0.01,VWS V14.01,2013-10-30 03:21:00,
2013-10-29 23:26:00,56.3,54.0,30.24,SSW,209,0.0,0.0,92,0.02,,,0.02,VWS V14.01,2013-10-30 03:26:00,
2013-10-29 23:30:00,55.7,54.0,30.20,SSW,209,0.0,0.0,94,0.01,,,0.00,VWS V14.01,2013-10-30 03:30:00,
2013-10-29 23:31:00,56.3,54.0,30.24,SSW,209,0.0,0.0,92,0.02,,,0.02,VWS V14.01,2013-10-30 03:31:00,
2013-10-29 23:36:00,56.2,53.9,30.24,SSW,209,0.0,0.0,92,0.02,,,0.02,VWS V14.01,2013-10-30 03:36:00,
2013-10-29 23:40:00,55.7,54.0,30.20,SSW,209,0.0,0.0,94,0.01,,,0.00,VWS V14.01,2013-10-30 03:40:00,
2013-10-29 23:41:00,56.2,53.9,30.24,SSW,209,0.0,0.0,92,0.02,,,0.02,VWS V14.01,2013-10-30 03:41:00,
2013-10-29 23:46:00,56.2,53.9,30.24,SSW,209,0.0,0.0,92,0.02,,,0.02,VWS V14.01,2013-10-30 03:46:00,
2013-10-29 23:50:00,55.6,54.2,30.19,SSW,209,0.0,0.0,95,0.01,,,0.00,VWS V14.01,2013-10-30 03:50:00,
2013-10-29 23:51:00,56.0,53.7,30.23,SSW,209,0.0,0.0,92,0.02,,,0.02,VWS V14.01,2013-10-30 03:51:00,
2013-10-29 23:56:00,56.0,54.0,30.23,SSW,209,0.0,0.0,93,0.03,,,0.03,VWS V14.01,2013-10-30 03:56:00,